createdAt,value
2018-03-04T00:00:52.475Z,19.1
2018-03-04T00:01:51.977Z,18.5
2018-03-04T00:02:52.517Z,18.9
2018-03-04T00:03:52.211Z,19.3
2018-03-04T00:04:52.450Z,18.7
2018-03-04T00:05:52.436Z,18.8
2018-03-04T00:07:52.813Z,18.8
2018-03-04T00:08:52.211Z,18.0
2018-03-04T00:09:52.463Z,18.6
2018-03-04T00:10:52.471Z,19.4
2018-03-04T00:11:52.052Z,18.9
2018-03-04T00:12:52.024Z,18.2
2018-03-04T00:13:52.416Z,18.3
2018-03-04T00:14:52.236Z,18.4
2018-03-04T00:15:52.245Z,19.1
2018-03-04T00:16:52.419Z,19.3
2018-03-04T00:17:52.490Z,18.8
2018-03-04T00:18:52.028Z,18.8
2018-03-04T00:19:52.487Z,19.4
2018-03-04T00:20:52.443Z,18.4
2018-03-04T00:21:52.462Z,18.5
2018-03-04T00:22:52.238Z,19.4
2018-03-04T00:23:52.415Z,18.8
2018-03-04T00:24:52.513Z,19.8
2018-03-04T00:25:52.520Z,18.8
2018-03-04T00:26:52.493Z,19.0
2018-03-04T00:27:52.524Z,18.5
2018-03-04T00:28:52.252Z,18.2
2018-03-04T00:29:52.016Z,18.4
2018-03-04T00:30:52.282Z,18.3
2018-03-04T00:31:52.094Z,18.6
2018-03-04T00:32:52.529Z,18.0
2018-03-04T00:33:52.514Z,18.6
2018-03-04T00:34:52.051Z,18.1
2018-03-04T00:35:52.554Z,18.7
2018-03-04T00:36:52.513Z,18.5
2018-03-04T00:37:52.240Z,18.3
2018-03-04T00:38:52.550Z,18.2
2018-03-04T00:39:53.217Z,18.7
2018-03-04T00:40:52.499Z,19.1
2018-03-04T00:41:52.233Z,18.5
2018-03-04T00:42:52.509Z,18.7
2018-03-04T00:43:52.083Z,19.0
2018-03-04T00:44:52.071Z,18.6
2018-03-04T00:45:52.103Z,18.3
2018-03-04T00:46:52.468Z,19.1
2018-03-04T00:47:52.472Z,18.8
2018-03-04T00:48:52.174Z,18.5
2018-03-04T00:49:52.417Z,18.9
2018-03-04T00:50:52.149Z,19.0
2018-03-04T00:52:52.296Z,18.3
2018-03-04T00:53:52.286Z,18.5
2018-03-04T00:54:52.578Z,18.4
2018-03-04T00:55:52.482Z,19.1
2018-03-04T00:56:52.320Z,19.6
2018-03-04T00:57:52.572Z,18.6
2018-03-04T00:58:52.069Z,18.7
2018-03-04T00:59:52.583Z,18.2
2018-03-04T01:00:52.316Z,18.6
2018-03-04T01:01:52.578Z,18.6
2018-03-04T01:02:52.280Z,17.9
2018-03-04T01:03:52.613Z,18.7
2018-03-04T01:04:52.308Z,19.3
2018-03-04T01:06:52.619Z,18.6
2018-03-04T01:08:52.166Z,18.6
2018-03-04T01:09:52.580Z,18.8
2018-03-04T01:10:52.580Z,18.1
2018-03-04T01:11:52.500Z,19.1
2018-03-04T01:12:52.340Z,17.9
2018-03-04T01:13:52.122Z,17.7
2018-03-04T01:14:52.326Z,18.5
2018-03-04T01:15:52.590Z,18.4
2018-03-04T01:16:52.540Z,18.6
2018-03-04T01:17:52.486Z,19.1
2018-03-04T01:18:52.551Z,18.4
2018-03-04T01:19:52.308Z,18.5
2018-03-04T01:20:52.149Z,18.0
2018-03-04T01:21:52.171Z,19.1
2018-03-04T01:22:53.032Z,17.9
2018-03-04T01:23:52.380Z,18.7
2018-03-04T01:24:52.595Z,18.9
2018-03-04T01:25:52.652Z,19.1
2018-03-04T01:26:52.136Z,18.4
2018-03-04T01:27:52.358Z,18.8
2018-03-04T01:28:52.164Z,18.4
2018-03-04T01:29:52.360Z,17.9
2018-03-04T01:30:52.169Z,18.8
2018-03-04T01:31:52.531Z,18.2
2018-03-04T01:32:52.633Z,19.3
2018-03-04T01:34:52.398Z,18.3
2018-03-04T01:35:52.622Z,17.9
2018-03-04T01:36:52.609Z,18.0
2018-03-04T01:37:52.626Z,18.4
2018-03-04T01:38:52.636Z,18.9
2018-03-04T01:39:52.351Z,19.5
2018-03-04T01:40:52.646Z,18.7
2018-03-04T01:41:52.539Z,18.2
2018-03-04T01:42:52.575Z,18.3
2018-03-04T01:43:52.607Z,18.0
2018-03-04T01:45:52.561Z,17.9
2018-03-04T01:46:52.390Z,18.2
2018-03-04T01:47:52.220Z,17.9
2018-03-04T01:48:52.211Z,18.8
2018-03-04T01:49:52.603Z,18.2
2018-03-04T01:50:52.422Z,18.2
2018-03-04T01:51:52.725Z,18.4
2018-03-04T01:53:52.379Z,17.8
2018-03-04T01:54:52.605Z,18.5
2018-03-04T01:55:52.373Z,17.7
2018-03-04T01:56:52.172Z,18.1
2018-03-04T01:58:52.668Z,18.2
2018-03-04T01:59:52.638Z,18.7
2018-03-04T02:00:52.584Z,18.3
2018-03-04T02:01:52.695Z,18.3
2018-03-04T02:02:52.300Z,18.5
2018-03-04T02:03:52.358Z,17.8
2018-03-04T02:04:52.625Z,18.4
2018-03-04T02:05:52.648Z,18.6
2018-03-04T02:06:52.422Z,18.8
2018-03-04T02:07:52.419Z,18.4
2018-03-04T02:09:52.243Z,18.1
2018-03-04T02:10:52.694Z,17.6
2018-03-04T02:11:52.468Z,18.1
2018-03-04T02:12:52.650Z,18.1
2018-03-04T02:13:52.716Z,18.7
2018-03-04T02:14:52.400Z,18.9
2018-03-04T02:15:52.673Z,18.1
2018-03-04T02:16:52.397Z,18.8
2018-03-04T02:17:52.673Z,18.2
2018-03-04T02:18:52.220Z,17.9
2018-03-04T02:19:52.689Z,18.2
2018-03-04T02:20:52.213Z,18.1
2018-03-04T02:21:52.629Z,17.9
2018-03-04T02:23:52.421Z,17.7
2018-03-04T02:24:52.671Z,18.2
2018-03-04T02:25:52.198Z,17.3
2018-03-04T02:26:52.435Z,17.7
2018-03-04T02:28:52.255Z,18.0
2018-03-04T02:29:52.499Z,18.0
2018-03-04T02:30:52.730Z,18.6
2018-03-04T02:31:52.228Z,17.6
2018-03-04T02:32:52.655Z,17.2
2018-03-04T02:33:52.473Z,18.2
2018-03-04T02:34:52.315Z,17.8
2018-03-04T02:35:52.437Z,17.7
2018-03-04T02:36:52.697Z,17.2
2018-03-04T02:37:52.239Z,18.0
2018-03-04T02:38:52.712Z,18.3
2018-03-04T02:39:52.334Z,17.8
2018-03-04T02:40:52.280Z,17.6
2018-03-04T02:41:52.732Z,18.1
2018-03-04T02:42:52.281Z,17.8
2018-03-04T02:43:52.667Z,17.4
2018-03-04T02:45:52.306Z,17.6
2018-03-04T02:46:52.746Z,17.8
2018-03-04T02:47:52.973Z,17.9
2018-03-04T02:48:52.274Z,17.4
2018-03-04T02:49:52.301Z,17.4
2018-03-04T02:50:52.506Z,18.0
2018-03-04T02:51:52.720Z,17.4
2018-03-04T02:52:52.727Z,17.5
2018-03-04T02:55:52.763Z,18.1
2018-03-04T02:56:52.703Z,17.8
2018-03-04T02:57:52.754Z,17.5
2018-03-04T02:58:52.509Z,18.1
2018-03-04T02:59:52.705Z,18.2
2018-03-04T03:00:52.260Z,17.0
2018-03-04T03:01:52.833Z,18.0
2018-03-04T03:02:52.286Z,17.5
2018-03-04T03:03:52.798Z,17.7
2018-03-04T03:04:52.526Z,18.3
2018-03-04T03:05:52.518Z,17.0
2018-03-04T03:06:52.805Z,18.1
2018-03-04T03:07:52.579Z,18.0
2018-03-04T03:08:52.470Z,17.5
2018-03-04T03:09:52.353Z,17.7
2018-03-04T03:10:52.716Z,17.8
2018-03-04T03:11:53.385Z,17.5
2018-03-04T03:12:52.777Z,17.4
2018-03-04T03:13:52.375Z,17.4
2018-03-04T03:14:52.716Z,16.9
2018-03-04T03:15:52.399Z,17.8
2018-03-04T03:16:52.389Z,17.4
2018-03-04T03:17:52.864Z,17.0
2018-03-04T03:18:52.340Z,16.6
2018-03-04T03:19:52.584Z,17.0
2018-03-04T03:20:52.363Z,17.8
2018-03-04T03:21:52.566Z,16.7
2018-03-04T03:22:52.789Z,17.4
2018-03-04T03:23:52.553Z,16.4
2018-03-04T03:24:52.800Z,16.4
2018-03-04T03:26:52.790Z,17.0
2018-03-04T03:27:52.823Z,17.8
2018-03-04T03:28:52.803Z,16.5
2018-03-04T03:29:52.371Z,16.9
2018-03-04T03:31:52.457Z,16.7
2018-03-04T03:32:52.768Z,16.9
2018-03-04T03:33:52.811Z,16.4
2018-03-04T03:34:52.742Z,16.9
2018-03-04T03:35:52.556Z,16.6
2018-03-04T03:36:52.379Z,16.5
2018-03-04T03:37:52.443Z,16.7
2018-03-04T03:38:52.864Z,16.3
2018-03-04T03:39:53.076Z,16.3
2018-03-04T03:40:52.809Z,16.1
2018-03-04T03:41:52.859Z,16.0
2018-03-04T03:42:52.424Z,16.9
2018-03-04T03:43:52.808Z,17.0
2018-03-04T03:44:52.814Z,16.1
2018-03-04T03:45:52.867Z,16.3
2018-03-04T03:46:52.611Z,16.6
2018-03-04T03:47:52.662Z,16.0
2018-03-04T03:49:52.900Z,16.2
2018-03-04T03:50:52.763Z,15.7
2018-03-04T03:51:54.019Z,15.9
2018-03-04T03:52:52.395Z,16.3
2018-03-04T03:53:52.885Z,15.7
2018-03-04T03:54:52.871Z,16.4
2018-03-04T03:55:52.495Z,15.7
2018-03-04T03:56:52.908Z,16.0
2018-03-04T03:57:52.452Z,15.9
2018-03-04T03:58:53.313Z,15.4
2018-03-04T03:59:52.847Z,15.3
2018-03-04T04:00:52.806Z,15.9
2018-03-04T04:01:52.497Z,15.8
2018-03-04T04:02:52.588Z,15.5
2018-03-04T04:03:52.674Z,16.0
2018-03-04T04:04:52.433Z,15.9
2018-03-04T04:05:52.464Z,15.2
2018-03-04T04:06:52.884Z,15.5
2018-03-04T04:07:52.902Z,15.4
2018-03-04T04:08:52.704Z,15.8
2018-03-04T04:09:52.719Z,14.9
2018-03-04T04:10:52.854Z,15.7
2018-03-04T04:11:52.715Z,15.5
2018-03-04T04:12:52.828Z,16.0
2018-03-04T04:13:52.738Z,15.1
2018-03-04T04:15:52.500Z,15.6
2018-03-04T04:16:52.806Z,15.6
2018-03-04T04:17:52.894Z,15.9
2018-03-04T04:18:52.640Z,15.5
2018-03-04T04:19:52.721Z,15.3
2018-03-04T04:20:52.894Z,14.8
2018-03-04T04:21:52.482Z,15.6
2018-03-04T04:22:52.451Z,14.6
2018-03-04T04:23:52.848Z,14.1
2018-03-04T04:25:52.918Z,14.9
2018-03-04T04:26:52.439Z,15.3
2018-03-04T04:27:52.917Z,14.5
2018-03-04T04:28:52.663Z,15.1
2018-03-04T04:29:52.925Z,15.0
2018-03-04T04:30:52.962Z,15.6
2018-03-04T04:31:52.918Z,14.9
2018-03-04T04:32:52.919Z,15.0
2018-03-04T04:33:52.520Z,15.5
2018-03-04T04:34:52.677Z,15.1
2018-03-04T04:35:52.529Z,14.9
2018-03-04T04:36:52.721Z,14.7
2018-03-04T04:37:52.526Z,14.5
2018-03-04T04:38:52.918Z,15.2
2018-03-04T04:39:52.953Z,14.4
2018-03-04T04:40:52.696Z,15.4
2018-03-04T04:41:53.373Z,14.1
2018-03-04T04:42:52.655Z,14.9
2018-03-04T04:43:52.908Z,14.6
2018-03-04T04:44:52.524Z,14.9
2018-03-04T04:45:52.769Z,14.0
2018-03-04T04:46:52.984Z,14.8
2018-03-04T04:47:52.971Z,14.4
2018-03-04T04:49:53.020Z,14.5
2018-03-04T04:51:52.522Z,15.2
2018-03-04T04:52:52.762Z,14.5
2018-03-04T04:53:53.182Z,14.2
2018-03-04T04:54:52.528Z,14.8
2018-03-04T04:55:53.022Z,14.6
2018-03-04T04:56:52.967Z,14.8
2018-03-04T04:57:52.976Z,14.4
2018-03-04T04:58:52.500Z,14.3
2018-03-04T04:59:52.513Z,15.2
2018-03-04T05:00:53.000Z,14.6
2018-03-04T05:01:52.868Z,14.7
2018-03-04T05:02:52.965Z,14.8
2018-03-04T05:03:52.906Z,14.4
2018-03-04T05:04:52.972Z,14.5
2018-03-04T05:05:52.705Z,14.2
2018-03-04T05:06:52.993Z,14.7
2018-03-04T05:07:52.742Z,14.1
2018-03-04T05:08:52.744Z,14.2
2018-03-04T05:09:52.722Z,14.6
2018-03-04T05:10:52.930Z,13.9
2018-03-04T05:11:52.540Z,14.0
2018-03-04T05:12:52.969Z,13.8
2018-03-04T05:13:52.509Z,14.3
2018-03-04T05:14:52.713Z,14.4
2018-03-04T05:15:52.971Z,14.2
2018-03-04T05:16:52.972Z,14.3
2018-03-04T05:17:52.726Z,13.6
2018-03-04T05:18:52.756Z,13.9
2018-03-04T05:19:52.575Z,14.1
2018-03-04T05:20:52.940Z,14.0
2018-03-04T05:21:52.572Z,13.9
2018-03-04T05:22:52.519Z,13.7
2018-03-04T05:24:52.551Z,14.0
2018-03-04T05:25:52.971Z,13.6
2018-03-04T05:26:53.010Z,13.8
2018-03-04T05:27:52.985Z,13.6
2018-03-04T05:28:52.796Z,13.4
2018-03-04T05:29:53.006Z,13.5
2018-03-04T05:30:52.976Z,13.8
2018-03-04T05:32:52.565Z,13.4
2018-03-04T05:33:52.764Z,13.2
2018-03-04T05:34:53.073Z,14.1
2018-03-04T05:35:52.601Z,14.1
2018-03-04T05:36:52.580Z,13.7
2018-03-04T05:37:53.038Z,13.7
2018-03-04T05:38:52.768Z,13.6
2018-03-04T05:39:53.046Z,13.9
2018-03-04T05:40:52.574Z,13.5
2018-03-04T05:41:53.036Z,13.3
2018-03-04T05:42:52.989Z,13.7
2018-03-04T05:43:52.598Z,14.1
2018-03-04T05:44:52.824Z,13.7
2018-03-04T05:45:53.070Z,13.7
2018-03-04T05:46:52.828Z,13.0
2018-03-04T05:48:52.623Z,13.3
2018-03-04T05:49:52.609Z,13.6
2018-03-04T05:51:53.074Z,13.6
2018-03-04T05:52:52.783Z,14.0
2018-03-04T05:54:53.043Z,13.0
2018-03-04T05:55:53.012Z,13.3
2018-03-04T05:56:53.041Z,14.4
2018-03-04T05:57:52.809Z,13.5
2018-03-04T05:58:53.082Z,13.9
2018-03-04T05:59:53.298Z,14.4
2018-03-04T06:00:52.603Z,13.5
2018-03-04T06:01:52.635Z,12.9
2018-03-04T06:02:52.826Z,13.5
2018-03-04T06:03:52.818Z,13.8
2018-03-04T06:04:52.613Z,14.0
2018-03-04T06:05:52.846Z,13.4
2018-03-04T06:06:52.599Z,13.1
2018-03-04T06:07:52.849Z,13.4
2018-03-04T06:08:53.108Z,13.5
2018-03-04T06:09:52.652Z,13.1
2018-03-04T06:10:52.649Z,13.5
2018-03-04T06:11:53.121Z,13.8
2018-03-04T06:12:52.682Z,13.7
2018-03-04T06:13:52.629Z,13.4
2018-03-04T06:15:52.688Z,13.7
2018-03-04T06:16:52.907Z,13.8
2018-03-04T06:17:53.086Z,13.4
2018-03-04T06:18:52.898Z,13.0
2018-03-04T06:19:53.083Z,14.0
2018-03-04T06:20:53.060Z,14.0
2018-03-04T06:21:53.189Z,13.3
2018-03-04T06:22:52.685Z,13.7
2018-03-04T06:23:52.685Z,13.8
2018-03-04T06:24:53.068Z,13.0
2018-03-04T06:25:52.887Z,13.7
2018-03-04T06:26:53.080Z,13.1
2018-03-04T06:27:53.084Z,13.8
2018-03-04T06:28:52.686Z,13.4
2018-03-04T06:29:52.948Z,13.8
2018-03-04T06:30:52.797Z,13.8
2018-03-04T06:32:53.189Z,13.7
2018-03-04T06:33:52.923Z,13.2
2018-03-04T06:34:53.195Z,13.9
2018-03-04T06:35:52.725Z,13.7
2018-03-04T06:36:53.125Z,14.2
2018-03-04T06:37:52.683Z,14.2
2018-03-04T06:38:52.699Z,14.3
2018-03-04T06:39:52.894Z,14.1
2018-03-04T06:40:52.733Z,13.9
2018-03-04T06:41:53.101Z,14.1
2018-03-04T06:42:53.142Z,13.5
2018-03-04T06:43:52.876Z,14.3
2018-03-04T06:44:53.184Z,13.9
2018-03-04T06:45:53.137Z,13.6
2018-03-04T06:46:53.444Z,14.2
2018-03-04T06:47:53.001Z,13.9
2018-03-04T06:48:52.885Z,13.2
2018-03-04T06:49:54.272Z,12.8
2018-03-04T06:50:53.223Z,13.9
2018-03-04T06:51:52.723Z,13.7
2018-03-04T06:52:53.180Z,13.4
2018-03-04T06:53:53.171Z,13.9
2018-03-04T06:54:52.880Z,13.4
2018-03-04T06:55:53.122Z,13.5
2018-03-04T06:56:52.916Z,13.9
2018-03-04T06:57:53.114Z,13.5
2018-03-04T06:58:53.332Z,14.3
2018-03-04T06:59:52.722Z,13.2
2018-03-04T07:00:53.135Z,13.4
2018-03-04T07:01:52.901Z,13.6
2018-03-04T07:02:52.933Z,13.5
2018-03-04T07:03:53.184Z,13.2
2018-03-04T07:04:52.781Z,13.7
2018-03-04T07:12:25.496Z,13.2
2018-03-04T07:12:36.709Z,13.4
2018-03-04T07:13:36.479Z,13.1
2018-03-04T07:14:36.710Z,12.6
2018-03-04T07:16:36.501Z,12.9
2018-03-04T07:17:36.717Z,13.4
2018-03-04T07:18:36.237Z,12.5
2018-03-04T07:20:36.454Z,13.3
2018-03-04T07:23:36.689Z,12.4
2018-03-04T07:24:36.763Z,11.6
2018-03-04T07:25:36.772Z,11.9
2018-03-04T07:26:36.786Z,12.9
2018-03-04T07:27:36.817Z,11.8
2018-03-04T07:28:36.880Z,12.3
2018-03-04T07:29:37.156Z,12.5
2018-03-04T07:31:36.689Z,12.0
2018-03-04T07:32:36.301Z,12.7
2018-03-04T07:33:36.820Z,12.0
2018-03-04T07:34:36.426Z,11.7
2018-03-04T07:35:36.783Z,11.5
2018-03-04T07:37:36.946Z,11.3
2018-03-04T07:39:36.678Z,11.2
2018-03-04T07:40:36.906Z,11.3
2018-03-04T07:41:36.709Z,11.1
2018-03-04T07:42:36.379Z,10.6
2018-03-04T07:43:36.798Z,10.8
2018-03-04T07:44:36.416Z,10.6
2018-03-04T07:45:36.826Z,11.3
2018-03-04T07:46:36.772Z,14.4
2018-03-04T07:47:36.355Z,17.6
2018-03-04T07:48:36.784Z,19.4
2018-03-04T07:50:36.933Z,17.1
2018-03-04T07:51:36.773Z,16.1
2018-03-04T07:52:36.828Z,14.5
2018-03-04T07:53:36.391Z,13.9
2018-03-04T07:54:36.807Z,13.3
2018-03-04T07:56:36.370Z,12.5
2018-03-04T07:57:36.744Z,12.0
2018-03-04T07:58:36.747Z,11.5
2018-03-04T08:00:36.842Z,10.8
2018-03-04T08:01:36.867Z,10.2
2018-03-04T08:02:37.346Z,9.8
2018-03-04T08:03:36.381Z,9.7
2018-03-04T08:05:36.881Z,9.4
2018-03-04T08:06:36.493Z,9.1
2018-03-04T08:08:37.727Z,8.8
2018-03-04T08:09:36.872Z,8.3
2018-03-04T08:10:37.352Z,7.9
2018-03-04T08:11:37.905Z,8.1
2018-03-04T08:12:36.623Z,7.7
2018-03-04T08:14:06.545Z,7.5
2018-03-04T08:14:36.895Z,7.6
2018-03-04T08:16:37.315Z,7.7
2018-03-04T08:17:36.789Z,7.7
2018-03-04T08:18:36.863Z,7.4
2018-03-04T08:19:36.927Z,7.9
2018-03-04T08:20:36.575Z,8.1
2018-03-04T08:21:36.557Z,8.0
2018-03-04T08:22:36.853Z,8.8
2018-03-04T08:24:36.679Z,8.6
2018-03-04T08:25:39.684Z,8.7
2018-03-04T08:26:36.959Z,8.5
2018-03-04T08:27:37.261Z,9.0
2018-03-04T08:28:37.119Z,8.3
2018-03-04T08:29:37.084Z,8.5
2018-03-04T08:30:36.446Z,8.3
2018-03-04T08:31:36.907Z,8.3
2018-03-04T08:33:36.459Z,7.9
2018-03-04T08:35:36.609Z,7.7
2018-03-04T08:36:36.910Z,7.8
2018-03-04T08:37:36.947Z,7.8
2018-03-04T08:38:36.472Z,7.5
2018-03-04T08:40:36.868Z,7.6
2018-03-04T08:41:36.868Z,7.2
2018-03-04T08:42:36.602Z,7.5
2018-03-04T08:43:36.500Z,7.2
2018-03-04T08:44:37.069Z,7.1
2018-03-04T08:45:36.675Z,7.2
2018-03-04T08:46:36.925Z,6.7
2018-03-04T08:47:36.666Z,6.9
2018-03-04T08:48:36.925Z,6.9
2018-03-04T08:53:59.058Z,6.8
2018-03-04T08:54:09.014Z,6.3
2018-03-04T08:55:08.906Z,6.4
2018-03-04T08:56:09.298Z,6.2
2018-03-04T08:58:09.007Z,6.1
2018-03-04T08:59:09.320Z,6.3
2018-03-04T09:00:09.358Z,6.0
2018-03-04T09:01:09.066Z,6.0
2018-03-04T09:02:09.310Z,5.5
2018-03-04T09:03:09.007Z,5.9
2018-03-04T09:04:09.290Z,6.1
2018-03-04T09:06:09.147Z,5.7
2018-03-04T09:08:09.481Z,5.6
2018-03-04T09:09:09.337Z,5.2
2018-03-04T09:12:09.393Z,5.3
2018-03-04T09:13:08.925Z,5.5
2018-03-04T09:15:08.862Z,5.4
2018-03-04T09:17:08.876Z,5.3
2018-03-04T09:18:09.212Z,5.2
2018-03-04T09:19:09.316Z,5.2
2018-03-04T09:20:09.470Z,4.8
2018-03-04T09:21:09.068Z,5.2
2018-03-04T09:22:09.458Z,5.2
2018-03-04T09:23:09.245Z,5.1
2018-03-04T09:24:09.050Z,5.2
2018-03-04T09:25:09.065Z,5.2
2018-03-04T09:27:09.246Z,5.0
2018-03-04T09:28:09.303Z,4.8
2018-03-04T09:29:09.551Z,4.7
2018-03-04T09:30:09.353Z,4.7
2018-03-04T09:31:09.295Z,4.8
2018-03-04T09:32:09.096Z,4.8
2018-03-04T09:33:09.280Z,4.7
2018-03-04T09:34:08.978Z,5.1
2018-03-04T09:36:09.290Z,7.7
2018-03-04T09:37:09.062Z,8.2
2018-03-04T09:38:09.035Z,6.4
2018-03-04T09:39:09.285Z,6.3
2018-03-04T09:40:09.332Z,6.1
2018-03-04T09:42:09.070Z,5.6
2018-03-04T09:43:08.870Z,5.1
2018-03-04T09:44:09.756Z,5.3
2018-03-04T09:45:08.889Z,5.6
2018-03-04T09:46:09.388Z,5.2
2018-03-04T09:47:09.319Z,5.4
2018-03-04T09:48:09.571Z,5.2
2018-03-04T09:49:09.058Z,5.2
2018-03-04T09:53:09.105Z,9.5
2018-03-04T09:54:09.059Z,10.5
2018-03-04T09:55:09.354Z,10.5
2018-03-04T09:57:08.940Z,9.0
2018-03-04T09:58:09.396Z,8.6
2018-03-04T09:59:09.070Z,8.1
2018-03-04T10:01:09.300Z,6.7
2018-03-04T10:02:09.399Z,7.0
2018-03-04T10:03:09.148Z,6.9
2018-03-04T10:04:09.076Z,6.2
2018-03-04T10:05:09.432Z,6.4
2018-03-04T10:08:09.113Z,5.4
2018-03-04T10:09:09.109Z,5.6
2018-03-04T10:13:09.534Z,4.8
2018-03-04T10:14:11.012Z,4.8
2018-03-04T10:15:09.442Z,4.5
2018-03-04T10:16:09.465Z,4.1
2018-03-04T10:17:09.327Z,4.3
2018-03-04T10:18:09.352Z,3.6
2018-03-04T10:19:09.398Z,4.2
2018-03-04T10:21:08.989Z,4.3
2018-03-04T10:23:09.406Z,3.9
2018-03-04T10:24:09.407Z,4.1
2018-03-04T10:25:09.440Z,4.0
2018-03-04T10:27:09.433Z,3.8
2018-03-04T10:29:09.365Z,3.5
2018-03-04T10:30:09.393Z,3.6
2018-03-04T10:32:09.279Z,3.5
2018-03-04T10:33:09.137Z,3.5
2018-03-04T10:35:09.350Z,3.5
2018-03-04T10:36:08.951Z,3.2
2018-03-04T10:37:09.629Z,3.5
2018-03-04T10:38:09.354Z,3.4
2018-03-04T10:39:09.578Z,3.7
2018-03-04T10:41:09.365Z,3.5
2018-03-04T10:42:09.387Z,3.5
2018-03-04T10:43:09.183Z,3.5
2018-03-04T10:44:09.402Z,3.3
2018-03-04T10:46:09.413Z,3.2
2018-03-04T10:47:09.009Z,3.2
2018-03-04T10:48:09.484Z,3.2
2018-03-04T10:49:09.180Z,3.3
2018-03-04T10:50:09.426Z,3.5
2018-03-04T10:51:09.456Z,3.3
2018-03-04T10:52:09.188Z,3.2
2018-03-04T10:53:09.207Z,3.2
2018-03-04T10:54:09.001Z,2.9
2018-03-04T10:57:09.185Z,3.4
2018-03-04T10:58:09.499Z,3.0
2018-03-04T10:59:09.430Z,2.9
2018-03-04T11:00:09.488Z,3.1
2018-03-04T11:02:09.030Z,2.8
2018-03-04T11:03:09.375Z,3.1
2018-03-04T11:04:09.401Z,3.2
2018-03-04T11:05:09.115Z,3.0
2018-03-04T11:06:09.393Z,3.1
2018-03-04T11:07:09.028Z,3.2
2018-03-04T11:08:09.505Z,3.0
2018-03-04T11:09:09.358Z,2.9
2018-03-04T11:10:09.016Z,3.2
2018-03-04T11:11:09.418Z,3.2
2018-03-04T11:12:09.473Z,3.2
2018-03-04T11:13:09.108Z,3.0
2018-03-04T11:14:09.463Z,3.0
2018-03-04T11:17:09.499Z,2.9
2018-03-04T11:18:09.510Z,3.1
2018-03-04T11:19:09.084Z,3.7
2018-03-04T11:22:09.047Z,3.2
2018-03-04T11:23:09.053Z,3.5
2018-03-04T11:24:09.511Z,2.9
2018-03-04T11:27:09.042Z,3.8
2018-03-04T11:28:09.557Z,3.3
2018-03-04T11:29:09.460Z,3.5
2018-03-04T11:30:09.520Z,3.4
2018-03-04T11:32:09.092Z,3.7
2018-03-04T11:33:09.456Z,3.6
2018-03-04T11:34:09.070Z,3.8
2018-03-04T11:36:09.120Z,3.6
2018-03-04T11:37:09.472Z,3.5
2018-03-04T11:40:09.933Z,3.5
2018-03-04T11:42:09.538Z,3.6
2018-03-04T11:44:09.130Z,3.5
2018-03-04T11:46:09.583Z,3.9
2018-03-04T11:48:09.526Z,3.6
2018-03-04T11:49:09.281Z,3.6
2018-03-04T11:50:09.505Z,3.4
2018-03-04T11:52:09.312Z,3.4
2018-03-04T11:53:09.195Z,3.6
2018-03-04T11:54:09.112Z,3.5
2018-03-04T11:57:09.527Z,3.4
2018-03-04T12:00:09.107Z,3.6
2018-03-04T12:01:09.132Z,3.5
2018-03-04T12:02:09.572Z,3.4
2018-03-04T12:03:09.533Z,3.8
2018-03-04T12:04:09.296Z,3.6
2018-03-04T12:05:09.512Z,3.8
2018-03-04T12:06:09.579Z,3.7
2018-03-04T12:07:09.303Z,3.7
2018-03-04T12:08:09.587Z,3.4
2018-03-04T12:09:09.308Z,3.6
2018-03-04T12:10:09.327Z,3.8
2018-03-04T12:11:09.566Z,3.7
2018-03-04T12:12:09.337Z,3.9
2018-03-04T12:13:09.585Z,3.5
2018-03-04T12:14:09.454Z,4.2
2018-03-04T12:15:09.528Z,3.9
2018-03-04T12:16:09.652Z,3.9
2018-03-04T12:17:09.334Z,3.8
2018-03-04T12:18:09.346Z,4.1
2018-03-04T12:20:09.172Z,11.5
2018-03-04T12:22:09.574Z,18.3
2018-03-04T12:23:09.604Z,18.0
2018-03-04T12:24:09.623Z,20.2
2018-03-04T12:25:09.370Z,20.0
2018-03-04T12:26:09.380Z,16.4
2018-03-04T12:28:09.651Z,13.7
2018-03-04T12:29:09.685Z,14.3
2018-03-04T12:30:09.436Z,13.3
2018-03-04T12:32:09.333Z,12.4
2018-03-04T12:33:09.396Z,11.8
2018-03-04T12:34:09.588Z,11.1
2018-03-04T12:36:09.200Z,9.9
2018-03-04T12:37:09.641Z,9.7
2018-03-04T12:38:09.376Z,9.1
2018-03-04T12:39:09.589Z,9.3
2018-03-04T12:40:09.450Z,9.3
2018-03-04T12:42:09.675Z,8.4
2018-03-04T12:43:09.697Z,8.0
2018-03-04T12:44:09.708Z,8.0
2018-03-04T12:45:09.269Z,7.4
2018-03-04T12:46:09.676Z,7.9
2018-03-04T12:47:09.207Z,7.9
2018-03-04T12:48:10.335Z,7.4
2018-03-04T12:49:09.432Z,7.2
2018-03-04T12:50:09.661Z,6.8
2018-03-04T12:52:09.592Z,7.0
2018-03-04T12:53:09.188Z,7.2
2018-03-04T12:54:09.402Z,6.3
2018-03-04T12:55:09.745Z,6.5
2018-03-04T12:57:09.677Z,6.5
2018-03-04T12:58:09.194Z,6.3
2018-03-04T12:59:09.707Z,6.6
2018-03-04T13:00:09.206Z,6.0
2018-03-04T13:02:09.752Z,6.4
2018-03-04T13:03:09.296Z,6.1
2018-03-04T13:04:09.228Z,6.3
2018-03-04T13:05:09.654Z,5.9
2018-03-04T13:07:13.322Z,6.0
2018-03-04T13:08:11.540Z,6.8
2018-03-04T13:09:09.642Z,6.2
2018-03-04T13:10:09.329Z,6.3
2018-03-04T13:11:09.366Z,6.7
2018-03-04T13:12:09.668Z,6.3
2018-03-04T13:13:09.910Z,6.2
2018-03-04T13:14:09.435Z,6.2
2018-03-04T13:15:09.408Z,6.3
2018-03-04T13:17:12.397Z,6.4
2018-03-04T13:18:11.308Z,6.1
2018-03-04T13:19:09.983Z,5.9
2018-03-04T13:20:09.740Z,5.8
2018-03-04T13:21:09.673Z,6.2
2018-03-04T13:23:09.538Z,6.2
2018-03-04T13:24:09.734Z,5.9
2018-03-04T13:25:09.441Z,6.0
2018-03-04T13:26:09.652Z,6.0
2018-03-04T13:28:09.272Z,5.8
2018-03-04T13:31:09.878Z,5.8
2018-03-04T13:32:09.424Z,6.3
2018-03-04T13:33:09.712Z,6.0
2018-03-04T13:34:09.438Z,6.2
2018-03-04T13:35:09.647Z,6.2
2018-03-04T13:36:09.662Z,6.1
2018-03-04T13:37:09.242Z,6.4
2018-03-04T13:38:09.698Z,6.0
2018-03-04T13:39:09.307Z,6.0
2018-03-04T13:40:09.736Z,6.4
2018-03-04T13:41:09.706Z,6.6
2018-03-04T13:42:09.464Z,6.3
2018-03-04T13:43:09.510Z,6.2
2018-03-04T13:44:09.281Z,6.0
2018-03-04T13:45:09.649Z,6.0
2018-03-04T13:46:09.714Z,6.0
2018-03-04T13:47:09.287Z,6.0
2018-03-04T13:50:09.478Z,6.0
2018-03-04T13:52:09.784Z,6.3
2018-03-04T13:53:09.809Z,6.5
2018-03-04T13:56:09.501Z,7.1
2018-03-04T13:58:09.514Z,7.1
2018-03-04T14:00:09.768Z,7.7
2018-03-04T14:02:09.372Z,7.3
2018-03-04T14:03:09.519Z,7.4
2018-03-04T14:04:09.521Z,7.6
2018-03-04T14:05:09.762Z,7.6
2018-03-04T14:06:09.469Z,7.8
2018-03-04T14:07:09.781Z,7.9
2018-03-04T14:10:09.790Z,8.2
2018-03-04T14:12:09.703Z,8.6
2018-03-04T14:13:09.799Z,8.4
2018-03-04T14:14:09.488Z,7.9
2018-03-04T14:15:09.512Z,8.4
2018-03-04T14:17:09.429Z,8.1
2018-03-04T14:18:10.388Z,8.5
2018-03-04T14:20:09.920Z,9.3
2018-03-04T14:22:09.387Z,9.6
2018-03-04T14:23:09.829Z,8.9
2018-03-04T14:26:09.927Z,8.9
2018-03-04T14:27:09.755Z,8.5
2018-03-04T14:28:09.711Z,19.3
2018-03-04T14:29:09.396Z,17.0
2018-03-04T14:30:09.512Z,15.8
2018-03-04T14:31:09.539Z,14.0
2018-03-04T14:33:09.770Z,14.3
2018-03-04T14:34:09.866Z,14.0
2018-03-04T14:35:09.891Z,13.7
2018-03-04T14:37:09.842Z,12.4
2018-03-04T14:38:09.831Z,12.1
2018-03-04T14:39:09.900Z,11.9
2018-03-04T14:41:09.977Z,11.8
2018-03-04T14:42:09.578Z,11.2
2018-03-04T14:43:09.802Z,11.7
2018-03-04T14:45:10.053Z,10.9
2018-03-04T14:46:09.852Z,10.4
2018-03-04T14:47:09.845Z,10.8
2018-03-04T14:48:09.437Z,10.5
2018-03-04T14:49:09.388Z,10.8
2018-03-04T14:50:09.828Z,11.1
2018-03-04T14:51:09.559Z,10.2
2018-03-04T14:52:09.915Z,10.3
2018-03-04T14:53:09.413Z,9.9
2018-03-04T14:54:09.580Z,10.0
2018-03-04T14:56:09.876Z,9.7
2018-03-04T14:57:09.575Z,10.5
2018-03-04T14:58:09.687Z,9.9
2018-03-04T14:59:10.009Z,9.6
2018-03-04T15:00:09.981Z,9.4
2018-03-04T15:01:10.009Z,9.9
2018-03-04T15:03:09.472Z,9.2
2018-03-04T15:04:09.838Z,9.9
2018-03-04T15:06:09.462Z,9.7
2018-03-04T15:08:09.430Z,8.8
2018-03-04T15:09:09.856Z,9.4
2018-03-04T15:12:09.606Z,9.4
2018-03-04T15:13:09.456Z,9.2
2018-03-04T15:14:09.936Z,9.2
2018-03-04T15:15:09.462Z,9.2
2018-03-04T15:17:09.936Z,9.1
2018-03-04T15:18:09.919Z,9.1
2018-03-04T15:19:09.664Z,9.1
2018-03-04T15:20:09.848Z,9.3
2018-03-04T15:22:09.844Z,8.8
2018-03-04T15:23:09.923Z,8.8
2018-03-04T15:24:09.462Z,9.4
2018-03-04T15:25:09.484Z,8.6
2018-03-04T15:28:09.669Z,8.7
2018-03-04T15:29:09.530Z,9.1
2018-03-04T15:30:09.851Z,8.9
2018-03-04T15:31:09.869Z,9.0
2018-03-04T15:32:09.856Z,9.0
2018-03-04T15:34:09.508Z,8.2
2018-03-04T15:35:09.475Z,9.0
2018-03-04T15:36:10.050Z,8.6
2018-03-04T15:37:09.667Z,8.6
2018-03-04T15:38:09.914Z,8.5
2018-03-04T15:39:09.697Z,8.6
2018-03-04T15:40:09.922Z,8.5
2018-03-04T15:41:09.696Z,8.5
2018-03-04T15:43:09.977Z,8.7
2018-03-04T15:44:09.929Z,8.9
2018-03-04T15:45:09.538Z,8.1
2018-03-04T15:46:09.944Z,8.6
2018-03-04T15:47:09.884Z,8.7
2018-03-04T15:48:09.929Z,8.4
2018-03-04T15:50:09.575Z,9.1
2018-03-04T15:52:09.952Z,8.5
2018-03-04T15:53:09.923Z,8.7
2018-03-04T15:54:09.964Z,9.1
2018-03-04T15:57:09.518Z,8.8
2018-03-04T15:58:09.689Z,8.6
2018-03-04T15:59:10.081Z,9.0
2018-03-04T16:00:09.988Z,8.8
2018-03-04T16:01:09.740Z,8.4
2018-03-04T16:02:10.078Z,8.8
2018-03-04T16:03:10.004Z,8.6
2018-03-04T16:04:10.015Z,8.6
2018-03-04T16:05:09.530Z,9.1